WetterOnline ( https://www.wetteronline.de )

Wetter aktuell Mömbris

Aktuelles Wetter: Neuhütten/Spessart (340m)

6-stündlich | Neueste Meldungen
Ortszeit Temperatur Wetter
Mi, 29.05. 14:00 16.2° C leichter Regen
Mi, 29.05. 8:00 11.5° C bedeckt
Mi, 29.05. 2:00 10.3° C bewölkt
Di, 28.05. 20:00 16.6° C wolkenlos
Di, 28.05. 14:00 14.7° C wolkig
Di, 28.05. 8:00 10.3° C wolkig
Di, 28.05. 2:00 12.9° C wolkig
Mo, 27.05. 20:00 15.0° C wolkig
Ortszeit Temperatur Wetter
Mi, 29.05. 14:30 16.8° C bedeckt
Mi, 29.05. 14:20 16.8° C bedeckt
Mi, 29.05. 14:10 16.5° C bedeckt
Mi, 29.05. 14:00 16.2° C leichter Regen
Mi, 29.05. 13:50 16.2° C leichter Regen
Mi, 29.05. 13:40 16.7° C bedeckt
Mi, 29.05. 13:30 16.4° C bewölkt
Mi, 29.05. 13:00 16.5° C bewölkt
Mi, 29.05. 12:30 15.6° C bedeckt
Mi, 29.05. 12:00 15.2° C bedeckt
Mi, 29.05. 11:30 15.0° C bedeckt
Ortszeit Relative Feuchte Sichtweite
Mi, 29.05. 14:00 71% 35 km
Mi, 29.05. 8:00 84% >70 km
Mi, 29.05. 2:00 87% 50 km
Di, 28.05. 20:00 50% 60 km
Di, 28.05. 14:00 53% 50 km
Di, 28.05. 8:00 89% 45 km
Di, 28.05. 2:00 93% 35 km
Mo, 27.05. 20:00 96% 27 km
Ortszeit Relative Feuchte Sichtweite
Mi, 29.05. 14:30 70% 50 km
Mi, 29.05. 14:20 70% -
Mi, 29.05. 14:10 71% -
Mi, 29.05. 14:00 71% 35 km
Mi, 29.05. 13:50 71% -
Mi, 29.05. 13:40 70% -
Mi, 29.05. 13:30 70% 50 km
Mi, 29.05. 13:00 70% 50 km
Mi, 29.05. 12:30 74% >70 km
Mi, 29.05. 12:00 81% 55 km
Mi, 29.05. 11:30 82% 55 km
Ortszeit Niederschlagsmenge Niederschlagsart
Mi, 29.05. 14:00 0.3 l/m2 in 6 Std. Regen
Mi, 29.05. 8:00 0.1 l/m2 in 12 Std. Regen
Mi, 29.05. 2:00 0.0 l/m2 in 6 Std. -
Di, 28.05. 20:00 0.0 l/m2 in 12 Std. -
Di, 28.05. 14:00 0.0 l/m2 in 6 Std. -
Di, 28.05. 8:00 1 l/m2 in 12 Std. -
Di, 28.05. 2:00 1 l/m2 in 6 Std. Regen
Mo, 27.05. 20:00 1 l/m2 in 12 Std. Regen
Ortszeit Niederschlagsmenge Niederschlagsart
Mi, 29.05. 14:30 <0.05 l/m2 in 30 Min Schneeregen
Mi, 29.05. 14:20 keine Meldung -
Mi, 29.05. 14:10 keine Meldung -
Mi, 29.05. 14:00 <0.05 l/m2 in 1 Std. Regen
Mi, 29.05. 13:50 keine Meldung -
Mi, 29.05. 13:40 keine Meldung -
Mi, 29.05. 13:30 0.0 l/m2 in 30 Min -
Mi, 29.05. 13:00 0.0 l/m2 in 1 Std. -
Mi, 29.05. 12:30 0.0 l/m2 in 30 Min -
Mi, 29.05. 12:00 0.1 l/m2 in 1 Std. Regen
Mi, 29.05. 11:30 0.1 l/m2 in 30 Min Schneeregen
Ortszeit Stärke Spitze Richtung
km/h Bft. km/h Grad Sektor
Mi, 29.05. 14:00 15 3 39 250° W
Mi, 29.05. 8:00 4 1 7 50° NO
Mi, 29.05. 2:00 4 1 18 70° O
Di, 28.05. 20:00 13 3 35 250° W
Di, 28.05. 14:00 15 3 43 260° W
Di, 28.05. 8:00 13 3 28 270° W
Di, 28.05. 2:00 7 2 20 250° W
Mo, 27.05. 20:00 2 1 26 240° SW
Ortszeit Stärke Spitze Richtung
km/h Bft. km/h Grad Sektor
Mi, 29.05. 14:30 14 3 32 240° SW
Mi, 29.05. 14:20 14 3 - 240° SW
Mi, 29.05. 14:10 17 3 - 230° SW
Mi, 29.05. 14:00 15 3 31 250° W
Mi, 29.05. 13:50 15 3 - 250° W
Mi, 29.05. 13:40 14 3 - 260° W
Mi, 29.05. 13:30 18 3 32 250° W
Mi, 29.05. 13:00 18 3 40 240° SW
Mi, 29.05. 12:30 17 3 26 230° SW
Mi, 29.05. 12:00 11 2 22 230° SW
Mi, 29.05. 11:30 13 3 19 240° SW
Ortszeit Untergrenze Bedeckung Gattung
total tief tief mittel hoch
Mi, 29.05. 14:00 810 m 8/8 8/8 - - -
Mi, 29.05. 8:00 1500 m 8/8 8/8 - - -
Mi, 29.05. 2:00 1500 m 8/8 5/8 - - -
Di, 28.05. 20:00 - 0/8 0/8 - - -
Di, 28.05. 14:00 1410 m 5/8 5/8 - - -
Di, 28.05. 8:00 270 m 6/8 6/8 - - -
Di, 28.05. 2:00 240 m 8/8 2/8 - - -
Mo, 27.05. 20:00 2400 m 8/8 2/8 - - -
Ortszeit Bedeckungsgrad in Achtel und Wolkenuntergrenze
Mi, 29.05. 14:30 5(930m) 7(1350m) 8(1800m)
Mi, 29.05. 14:20 5(930m) 7(1350m) 8(1800m)
Mi, 29.05. 14:10 8
Mi, 29.05. 14:00 5(810m) 6(1200m) 8(1410m)
Mi, 29.05. 13:50 5(810m) 6(1200m) 8(1410m)
Mi, 29.05. 13:40 8
Mi, 29.05. 13:30 3(720m) 7(1140m) 8(4800m)
Mi, 29.05. 13:00 3(690m) 7(1500m) 7(2400m)
Mi, 29.05. 12:30 2(600m) 8(1230m) 8(1500m)
Mi, 29.05. 12:00 3(900m) 6(1410m) 8(1500m)
Mi, 29.05. 11:30 2(1020m) 7(1800m) 8(2400m)
Ortszeit Luftdruck NN (hPa) Tendenz (hPa in 3 Std.)
Mi, 29.05. 14:00 1013 - 1,1
Mi, 29.05. 8:00 1015 - 0,9
Mi, 29.05. 2:00 1018 - 1,2
Di, 28.05. 20:00 1018 - 0,8
Di, 28.05. 14:00 1020 - 0,3
Di, 28.05. 8:00 1020 + 1,2
Di, 28.05. 2:00 1018 + 0,7
Mo, 27.05. 20:00 1016 - 0,3
Ortszeit Luftdruck NN (hPa) Tendenz (hPa in 3 Std.)
Mi, 29.05. 14:30 1013 - 1,1
Mi, 29.05. 14:20 1013 keine Meldung
Mi, 29.05. 14:10 1013 keine Meldung
Mi, 29.05. 14:00 1013 - 1,1
Mi, 29.05. 13:50 1013 keine Meldung
Mi, 29.05. 13:40 1013 keine Meldung
Mi, 29.05. 13:30 1013 - 1,1
Mi, 29.05. 13:00 1013 - 0,9
Mi, 29.05. 12:30 1014 - 0,5
Mi, 29.05. 12:00 1014 - 0,4
Mi, 29.05. 11:30 1014 - 0,6
Ortszeit Schneehöhe (cm)
Mi, 29.05. 14:00 0
Mi, 29.05. 8:00 0
Mi, 29.05. 2:00 0
Di, 28.05. 20:00 0
Di, 28.05. 14:00 0
Di, 28.05. 8:00 0
Di, 28.05. 2:00 0
Mo, 27.05. 20:00 0
Ortszeit Schneehöhe (cm)
Mi, 29.05. 14:30 0
Mi, 29.05. 14:20 0
Mi, 29.05. 14:10 -
Mi, 29.05. 14:00 0
Mi, 29.05. 13:50 0
Mi, 29.05. 13:40 -
Mi, 29.05. 13:30 0
Mi, 29.05. 13:00 0
Mi, 29.05. 12:30 0
Mi, 29.05. 12:00 0
Mi, 29.05. 11:30 0
Link zu dieser Seite / Seite empfehlen

Das Wetter in ...